Terminal Aerodrome Forecast
Issued by NWS

Home | Current Version | Previous Version | Text Only | Print | Product List | Glossary On
Versions: 1 2 3 4 5 6 7 8 9 10 11 12 13 14 15
000
FTUS41 KPBZ 200126 AAA
TAFFKL
TAF AMD
KFKL 200126Z 2001/2024 14013G26KT P6SM -RA OVC050
     FM200300 14012KT 4SM -SHRA OVC008 WS020/15050KT
     FM201200 16010G18KT P6SM BKN025
     FM201800 20010G20KT P6SM VCTS BKN035CB
      AMD LTD TO CLD VIS AND WIND=

USA.gov is the U.S. government's official web portal to all federal, state and local government web resources and services.